Time;durP1;ratioP1;P1;durP2;ratioP2;P2;SDS_P1;SDS_P2;PMS_P1;PMS_P2;Temp;Humidity;BMP_temperature;BMP_pressure;BME280_temperature;BME280_humidity;BME280_pressure;Samples;Min_cycle;Max_cycle;Signal;HPM_P1;HPM_P2
2022/03/04 00:01:17;;;;;;;;;;;;;;;0.74;60.51;100246.53;5564548;32;34792;-84
2022/03/04 00:04:20;;;;;;;;;;;;;;;0.72;60.93;100240.59;5563768;32;34847;-84
2022/03/04 00:07:23;;;;;;;;;;;;;;;0.84;60.84;100250.37;5563888;32;35819;-84
2022/03/04 00:10:33;;;;;;;;;;;;;;;0.74;62.89;100241.31;5564850;32;34901;-84
2022/03/04 00:13:37;;;;;;;;;;;;;;;0.80;62.23;100235.81;5563009;32;35652;-85
2022/03/04 00:16:40;;;;;;;;;;;;;;;0.77;63.00;100241.16;5562497;32;37236;-84
2022/03/04 00:19:43;;;;;;;;;;;;;;;0.72;62.45;100243.19;5562204;32;35383;-84
2022/03/04 00:22:46;;;;;;;;;;;;;;;0.88;62.14;100251.88;5562050;32;35711;-84
2022/03/04 00:25:49;;;;;;;;;;;;;;;1.02;60.86;100245.09;5561698;32;34934;-84
2022/03/04 00:28:54;;;;;;;;;;;;;;;1.08;60.19;100240.41;5561512;32;36237;-84
2022/03/04 00:31:57;;;;;;;;;;;;;;;0.95;60.62;100243.75;5547994;32;34421;-85
2022/03/04 00:35:00;;;;;;;;;;;;;;;0.83;61.59;100246.06;5563835;32;35305;-84
2022/03/04 00:38:02;;;;;;;;;;;;;;;1.03;59.93;100242.41;5565029;32;35736;-84
2022/03/04 00:41:11;;;;;;;;;;;;;;;1.16;60.08;100242.59;5564547;32;34082;-84
2022/03/04 00:44:13;;;;;;;;;;;;;;;1.20;59.54;100238.88;5564200;32;35015;-84
2022/03/04 00:47:16;;;;;;;;;;;;;;;1.25;59.64;100238.62;5564041;32;34779;-84
2022/03/04 00:50:18;;;;;;;;;;;;;;;1.08;60.32;100234.34;5565441;32;36885;-84
2022/03/04 00:53:21;;;;;;;;;;;;;;;1.16;59.79;100234.78;5565635;32;35320;-84
2022/03/04 00:56:24;;;;;;;;;;;;;;;1.11;60.45;100231.56;5565124;32;35929;-84
2022/03/04 00:59:27;;;;;;;;;;;;;;;1.17;60.23;100239.06;5564545;32;35104;-84
2022/03/04 01:02:30;;;;;;;;;;;;;;;1.08;60.55;100231.72;5565615;32;34296;-84
2022/03/04 01:05:33;;;;;;;;;;;;;;;1.11;61.82;100234.19;5565455;32;35851;-84
2022/03/04 01:08:35;;;;;;;;;;;;;;;1.23;60.87;100227.47;5566923;32;35818;-84
2022/03/04 01:11:38;;;;;;;;;;;;;;;1.25;61.16;100230.00;5564884;32;35406;-84
2022/03/04 01:14:41;;;;;;;;;;;;;;;1.23;61.67;100228.31;5564645;32;35490;-84
2022/03/04 01:17:44;;;;;;;;;;;;;;;1.25;61.37;100232.59;5565464;32;35217;-84
2022/03/04 01:20:46;;;;;;;;;;;;;;;1.23;62.47;100222.28;5564334;32;35171;-84
2022/03/04 01:23:49;;;;;;;;;;;;;;;1.31;62.59;100214.00;5564956;32;34782;-84
2022/03/04 01:26:51;;;;;;;;;;;;;;;1.32;63.22;100218.31;5565611;32;35783;-84
2022/03/04 01:29:54;;;;;;;;;;;;;;;1.36;63.30;100222.44;5565573;32;34887;-84
2022/03/04 01:32:56;;;;;;;;;;;;;;;1.33;62.94;100217.38;5564408;32;35688;-84
2022/03/04 01:35:59;;;;;;;;;;;;;;;1.28;63.57;100217.63;5564343;32;34622;-84
2022/03/04 01:39:02;;;;;;;;;;;;;;;1.33;64.12;100214.78;5566015;32;34653;-84
2022/03/04 01:42:05;;;;;;;;;;;;;;;1.31;63.63;100219.22;5566192;32;34831;-84
2022/03/04 01:45:09;;;;;;;;;;;;;;;1.34;64.12;100213.84;5566412;32;34741;-84
2022/03/04 01:48:12;;;;;;;;;;;;;;;1.50;63.79;100222.53;5563891;32;35535;-85
2022/03/04 01:51:19;;;;;;;;;;;;;;;1.61;63.72;100221.91;5566079;32;35103;-85
2022/03/04 01:54:32;;;;;;;;;;;;;;;1.53;64.01;100224.94;5564707;32;35257;-84
2022/03/04 01:57:38;;;;;;;;;;;;;;;1.33;64.69;100222.59;5563807;32;34513;-84
2022/03/04 02:00:41;;;;;;;;;;;;;;;1.18;65.36;100225.09;5564249;32;35461;-84
2022/03/04 02:03:44;;;;;;;;;;;;;;;1.13;67.31;100227.13;5564602;32;33942;-84
2022/03/04 02:06:46;;;;;;;;;;;;;;;1.07;67.27;100222.22;5565253;32;34888;-84
2022/03/04 02:09:49;;;;;;;;;;;;;;;1.08;67.93;100216.94;5564202;32;34808;-84
2022/03/04 02:12:51;;;;;;;;;;;;;;;1.09;68.60;100225.59;5564932;32;35805;-84
2022/03/04 02:15:54;;;;;;;;;;;;;;;1.11;69.09;100222.94;5563998;32;35885;-84
2022/03/04 02:18:56;;;;;;;;;;;;;;;1.30;70.28;100226.22;5563139;32;35247;-84
2022/03/04 02:22:00;;;;;;;;;;;;;;;1.39;70.98;100219.66;5563287;32;34680;-84
2022/03/04 02:25:05;;;;;;;;;;;;;;;1.43;71.37;100218.56;5564216;32;35887;-84
2022/03/04 02:28:08;;;;;;;;;;;;;;;1.34;72.66;100219.06;5562634;32;34841;-84
2022/03/04 02:31:17;;;;;;;;;;;;;;;1.22;72.93;100224.00;5564859;32;34951;-85
2022/03/04 02:34:26;;;;;;;;;;;;;;;1.03;73.78;100231.16;5565948;32;35836;-84
2022/03/04 02:37:31;;;;;;;;;;;;;;;1.03;75.07;100225.94;5564242;32;34727;-86
2022/03/04 02:40:34;;;;;;;;;;;;;;;0.95;76.67;100235.94;5563764;32;35673;-84
2022/03/04 02:43:37;;;;;;;;;;;;;;;1.08;77.72;100226.50;5563470;32;34951;-85
2022/03/04 02:46:49;;;;;;;;;;;;;;;1.15;77.93;100235.72;5563617;32;34608;-84
2022/03/04 02:49:51;;;;;;;;;;;;;;;1.04;79.04;100240.66;5563963;32;34957;-84
2022/03/04 02:52:54;;;;;;;;;;;;;;;1.17;78.87;100244.28;5564800;32;35320;-85
2022/03/04 02:55:56;;;;;;;;;;;;;;;1.15;79.01;100235.72;5563677;32;35466;-84
2022/03/04 02:58:59;;;;;;;;;;;;;;;1.04;79.51;100235.44;5562845;32;34369;-84
2022/03/04 03:02:02;;;;;;;;;;;;;;;0.99;80.38;100240.03;5563881;32;35314;-84
2022/03/04 03:05:05;;;;;;;;;;;;;;;0.96;80.74;100245.44;5564806;32;34426;-85
2022/03/04 03:08:08;;;;;;;;;;;;;;;0.98;81.26;100243.56;5564432;32;34616;-86
2022/03/04 03:11:15;;;;;;;;;;;;;;;0.86;81.56;100239.84;5564255;32;35776;-84
2022/03/04 03:14:18;;;;;;;;;;;;;;;0.66;82.65;100239.12;5564755;32;35362;-84
2022/03/04 03:17:20;;;;;;;;;;;;;;;0.45;83.86;100246.28;5565026;32;34735;-84
2022/03/04 03:20:25;;;;;;;;;;;;;;;0.65;83.96;100241.81;5564088;32;34400;-84
2022/03/04 03:23:28;;;;;;;;;;;;;;;0.48;84.78;100251.34;5565007;32;34881;-84
2022/03/04 03:26:30;;;;;;;;;;;;;;;0.38;84.87;100247.50;5564323;32;35359;-84
2022/03/04 03:29:33;;;;;;;;;;;;;;;0.27;85.85;100241.09;5565810;32;35423;-84
2022/03/04 03:32:36;;;;;;;;;;;;;;;0.20;85.97;100249.25;5565717;32;34142;-84
2022/03/04 03:35:38;;;;;;;;;;;;;;;0.38;86.17;100244.91;5563904;32;35856;-84
2022/03/04 03:38:43;;;;;;;;;;;;;;;0.16;86.86;100256.38;5564259;32;35729;-84
2022/03/04 03:41:48;;;;;;;;;;;;;;;0.07;87.46;100254.22;5563861;32;35042;-85
2022/03/04 03:44:51;;;;;;;;;;;;;;;-0.02;88.08;100258.94;5564367;32;36770;-84
2022/03/04 03:47:54;;;;;;;;;;;;;;;-0.02;89.25;100245.94;5565183;32;34781;-84
2022/03/04 03:50:56;;;;;;;;;;;;;;;-0.09;89.31;100260.19;5563495;32;37058;-84
2022/03/04 03:54:02;;;;;;;;;;;;;;;0.09;88.38;100244.56;5564220;32;35194;-84
2022/03/04 03:57:04;;;;;;;;;;;;;;;0.38;87.09;100250.13;5564498;32;34675;-84
2022/03/04 04:00:07;;;;;;;;;;;;;;;0.40;86.85;100246.50;5564535;32;36384;-84
2022/03/04 04:03:14;;;;;;;;;;;;;;;0.39;86.37;100247.41;5564073;32;34803;-84
2022/03/04 04:06:18;;;;;;;;;;;;;;;0.27;86.74;100246.28;5564235;32;35459;-84
2022/03/04 04:09:21;;;;;;;;;;;;;;;0.20;86.93;100247.50;5564623;32;35699;-84
2022/03/04 04:12:24;;;;;;;;;;;;;;;0.12;87.46;100250.47;5566076;32;35747;-84
2022/03/04 04:15:27;;;;;;;;;;;;;;;0.03;87.55;100244.88;5567159;32;35839;-86
2022/03/04 04:18:30;;;;;;;;;;;;;;;-0.02;87.85;100258.94;5565877;32;34323;-85
2022/03/04 04:21:34;;;;;;;;;;;;;;;-0.05;88.68;100251.28;5566524;32;35217;-84
2022/03/04 04:24:37;;;;;;;;;;;;;;;-0.05;88.53;100260.87;5568230;32;34518;-84
2022/03/04 04:27:42;;;;;;;;;;;;;;;0.01;88.40;100257.94;5566552;32;35253;-84
2022/03/04 04:30:44;;;;;;;;;;;;;;;0.11;87.97;100255.75;5565743;32;35152;-84
2022/03/04 04:33:47;;;;;;;;;;;;;;;0.19;87.52;100264.03;5565604;32;34787;-84
2022/03/04 04:36:53;;;;;;;;;;;;;;;0.23;87.40;100268.16;5565571;32;34904;-84
2022/03/04 04:39:55;;;;;;;;;;;;;;;0.23;87.60;100265.56;5564801;32;35554;-84
2022/03/04 04:42:57;;;;;;;;;;;;;;;0.26;87.31;100267.16;5565327;32;34780;-84
2022/03/04 04:46:00;;;;;;;;;;;;;;;0.41;85.46;100275.97;5564411;32;35681;-84
2022/03/04 04:49:03;;;;;;;;;;;;;;;0.55;85.60;100283.09;5564999;32;35689;-85
2022/03/04 04:52:06;;;;;;;;;;;;;;;0.87;82.71;100281.44;5565225;32;34962;-85
2022/03/04 04:55:09;;;;;;;;;;;;;;;0.85;82.90;100283.28;5564684;32;34878;-84
2022/03/04 04:58:11;;;;;;;;;;;;;;;0.83;88.24;100287.75;5565054;32;36917;-85
2022/03/04 05:01:15;;;;;;;;;;;;;;;0.92;87.24;100297.69;5564514;32;35836;-85
2022/03/04 05:04:17;;;;;;;;;;;;;;;0.95;87.67;100301.06;5565070;32;34767;-85
2022/03/04 05:07:20;;;;;;;;;;;;;;;1.06;86.86;100303.94;5564820;32;35424;-85
2022/03/04 05:10:22;;;;;;;;;;;;;;;0.97;87.43;100301.78;5566015;32;34715;-84
2022/03/04 05:13:25;;;;;;;;;;;;;;;0.85;86.94;100311.94;5564885;32;35702;-85
2022/03/04 05:16:28;;;;;;;;;;;;;;;0.92;86.37;100317.66;5567914;32;34837;-84
2022/03/04 05:19:33;;;;;;;;;;;;;;;0.81;86.75;100319.97;5565143;32;35821;-84
2022/03/04 05:22:36;;;;;;;;;;;;;;;0.75;86.42;100323.75;5564859;32;34400;-84
2022/03/04 05:25:38;;;;;;;;;;;;;;;0.74;85.40;100329.84;5564477;32;35257;-84
2022/03/04 05:28:41;;;;;;;;;;;;;;;0.72;85.16;100337.75;5564384;32;34995;-85
2022/03/04 05:31:50;;;;;;;;;;;;;;;0.77;85.85;100332.31;5566137;32;36843;-84
2022/03/04 05:34:54;;;;;;;;;;;;;;;0.66;85.18;100339.84;5564983;32;34036;-85
2022/03/04 05:37:57;;;;;;;;;;;;;;;0.66;85.97;100337.22;5564621;32;34651;-85
2022/03/04 05:41:00;;;;;;;;;;;;;;;0.66;86.02;100342.44;5564966;32;35659;-84
2022/03/04 05:44:03;;;;;;;;;;;;;;;0.67;86.24;100351.94;5564819;32;34309;-84
2022/03/04 05:47:06;;;;;;;;;;;;;;;0.64;85.89;100349.47;5564544;32;35824;-84
2022/03/04 05:50:09;;;;;;;;;;;;;;;0.66;86.29;100355.44;5565009;32;34923;-84
2022/03/04 05:53:12;;;;;;;;;;;;;;;0.79;84.63;100359.13;5563753;32;35674;-84
2022/03/04 05:56:15;;;;;;;;;;;;;;;0.94;82.27;100364.50;5565448;32;34815;-86
2022/03/04 05:59:20;;;;;;;;;;;;;;;1.04;81.27;100368.31;5564795;32;35348;-85
2022/03/04 06:02:25;;;;;;;;;;;;;;;1.14;80.51;100369.53;5560336;32;34769;-86
2022/03/04 06:05:27;;;;;;;;;;;;;;;1.34;78.99;100362.44;5562956;32;37121;-85
2022/03/04 06:08:33;;;;;;;;;;;;;;;1.31;79.12;100370.41;5563242;32;34971;-86
2022/03/04 06:11:37;;;;;;;;;;;;;;;1.35;79.74;100364.12;5557652;32;34626;-86
2022/03/04 06:14:39;;;;;;;;;;;;;;;1.38;79.18;100377.00;5558477;32;35400;-86
2022/03/04 06:17:49;;;;;;;;;;;;;;;1.39;78.99;100378.69;5558316;32;34884;-86
2022/03/04 06:20:52;;;;;;;;;;;;;;;1.46;78.48;100381.81;5560544;32;35065;-86
2022/03/04 06:23:57;;;;;;;;;;;;;;;1.54;78.38;100385.69;5560483;32;35840;-85
2022/03/04 06:27:00;;;;;;;;;;;;;;;1.62;79.41;100393.09;5562298;32;35857;-86
2022/03/04 06:30:06;;;;;;;;;;;;;;;1.61;77.61;100393.19;5562502;32;36796;-86
2022/03/04 06:36:31;;;;;;;;;;;;;;;1.63;77.41;100407.84;5555808;32;34420;-86
2022/03/04 06:39:36;;;;;;;;;;;;;;;1.80;77.17;100403.50;5556283;32;33972;-86
2022/03/04 06:42:39;;;;;;;;;;;;;;;2.06;75.94;100407.31;5555276;32;34426;-86
2022/03/04 06:45:43;;;;;;;;;;;;;;;2.04;75.13;100406.53;5552615;32;35500;-86
2022/03/04 06:48:45;;;;;;;;;;;;;;;2.12;74.41;100409.56;5561046;32;34606;-85
2022/03/04 06:51:48;;;;;;;;;;;;;;;2.31;73.30;100409.41;5561044;32;35027;-85
2022/03/04 06:54:51;;;;;;;;;;;;;;;2.36;72.91;100410.91;5559625;32;34790;-86
2022/03/04 06:57:54;;;;;;;;;;;;;;;2.33;73.19;100406.69;5558745;32;34933;-85
2022/03/04 07:00:57;;;;;;;;;;;;;;;2.27;72.30;100409.66;5555555;32;34657;-85
2022/03/04 07:04:02;;;;;;;;;;;;;;;2.36;72.08;100409.13;5540946;32;35772;-86
2022/03/04 07:07:06;;;;;;;;;;;;;;;2.36;71.77;100416.97;5545401;32;34653;-85
2022/03/04 07:10:09;;;;;;;;;;;;;;;2.27;74.60;100425.31;5541574;32;34857;-86
2022/03/04 07:13:14;;;;;;;;;;;;;;;1.87;80.17;100430.94;5545491;32;35358;-85
2022/03/04 07:16:17;;;;;;;;;;;;;;;1.62;84.26;100440.06;5562657;32;34554;-85
2022/03/04 07:19:22;;;;;;;;;;;;;;;1.75;84.18;100442.84;5559828;32;34815;-85
2022/03/04 07:22:25;;;;;;;;;;;;;;;1.52;88.95;100450.09;5532391;32;851458;-85
2022/03/04 07:25:28;;;;;;;;;;;;;;;1.22;93.61;100455.97;5562568;32;34560;-84
2022/03/04 07:28:30;;;;;;;;;;;;;;;0.95;96.92;100452.16;5563104;32;35807;-85
2022/03/04 07:31:34;;;;;;;;;;;;;;;0.97;98.95;100468.53;5564010;32;35504;-86
2022/03/04 07:34:39;;;;;;;;;;;;;;;0.96;100.00;100466.88;5548880;32;33446;-86
2022/03/04 07:37:42;;;;;;;;;;;;;;;1.10;100.00;100464.41;5563559;32;35199;-85
2022/03/04 07:40:48;;;;;;;;;;;;;;;1.27;100.00;100475.78;5562675;32;35800;-85
2022/03/04 07:43:51;;;;;;;;;;;;;;;1.28;98.53;100467.03;5562657;32;35797;-85
2022/03/04 07:46:54;;;;;;;;;;;;;;;1.26;98.80;100466.25;5563036;32;35074;-85
2022/03/04 07:49:57;;;;;;;;;;;;;;;1.36;98.89;100472.69;5563254;32;35764;-85
2022/03/04 07:53:01;;;;;;;;;;;;;;;1.52;96.92;100478.78;5563102;32;34504;-85
2022/03/04 07:56:04;;;;;;;;;;;;;;;1.54;100.00;100471.75;5562345;32;35785;-85
2022/03/04 07:59:07;;;;;;;;;;;;;;;1.85;98.24;100470.16;5562828;32;34748;-86
2022/03/04 08:02:15;;;;;;;;;;;;;;;1.97;100.00;100479.09;5563379;32;35232;-85
2022/03/04 08:05:20;;;;;;;;;;;;;;;1.85;98.88;100483.22;5563530;32;35731;-85
2022/03/04 08:08:23;;;;;;;;;;;;;;;2.11;96.21;100475.75;5563340;32;34953;-85
2022/03/04 08:11:31;;;;;;;;;;;;;;;2.43;93.25;100477.53;5563380;32;34796;-85
2022/03/04 08:14:34;;;;;;;;;;;;;;;2.51;94.00;100487.56;5561764;32;37023;-85
2022/03/04 08:17:41;;;;;;;;;;;;;;;2.40;92.34;100489.00;5560573;32;34818;-84
2022/03/04 08:20:47;;;;;;;;;;;;;;;2.69;92.72;100489.16;5560752;32;34681;-85
2022/03/04 08:23:50;;;;;;;;;;;;;;;2.79;89.40;100486.88;5559911;32;35021;-84
2022/03/04 08:26:52;;;;;;;;;;;;;;;3.09;88.19;100494.75;5561129;32;34973;-84
2022/03/04 08:29:57;;;;;;;;;;;;;;;3.03;87.13;100487.22;5562577;32;34811;-85
2022/03/04 08:33:00;;;;;;;;;;;;;;;3.13;87.89;100484.94;5559511;32;34371;-84
2022/03/04 08:36:05;;;;;;;;;;;;;;;3.17;85.24;100490.81;5560986;32;34730;-84
2022/03/04 08:39:07;;;;;;;;;;;;;;;3.23;84.67;100490.47;5561730;32;35298;-84
2022/03/04 08:42:10;;;;;;;;;;;;;;;3.67;83.32;100486.16;5560907;32;34781;-84
2022/03/04 08:45:13;;;;;;;;;;;;;;;3.39;80.67;100480.78;5560630;32;34865;-84
2022/03/04 08:48:20;;;;;;;;;;;;;;;3.04;81.32;100485.47;5546855;32;35862;-84
2022/03/04 08:51:27;;;;;;;;;;;;;;;3.07;80.42;100491.37;5560589;32;34867;-84
2022/03/04 08:54:35;;;;;;;;;;;;;;;3.34;79.36;100488.06;5561450;32;35836;-85
2022/03/04 08:57:37;;;;;;;;;;;;;;;3.60;80.39;100490.91;5564391;32;34693;-85
2022/03/04 09:00:40;;;;;;;;;;;;;;;3.81;80.80;100495.78;5564968;32;34818;-85
2022/03/04 09:03:43;;;;;;;;;;;;;;;3.87;80.42;100501.50;5561544;32;35790;-84
2022/03/04 09:06:47;;;;;;;;;;;;;;;4.01;76.83;100498.03;5549872;32;34621;-85
2022/03/04 09:09:49;;;;;;;;;;;;;;;4.04;77.47;100499.62;5545394;32;34736;-85
2022/03/04 09:12:52;;;;;;;;;;;;;;;4.52;76.23;100496.66;5544609;32;34625;-85
2022/03/04 09:15:54;;;;;;;;;;;;;;;4.52;74.34;100503.66;5546448;32;35700;-85
2022/03/04 09:19:08;;;;;;;;;;;;;;;4.90;72.05;100501.22;5545397;32;35716;-86
2022/03/04 09:22:14;;;;;;;;;;;;;;;4.93;71.24;100502.81;5545291;32;35848;-86
2022/03/04 09:25:16;;;;;;;;;;;;;;;4.74;68.77;100503.16;5543970;32;35229;-86
2022/03/04 09:28:19;;;;;;;;;;;;;;;5.21;67.91;100509.72;5544289;32;34846;-85
2022/03/04 09:31:22;;;;;;;;;;;;;;;5.45;62.00;100501.16;5528800;32;35923;-87
2022/03/04 09:34:24;;;;;;;;;;;;;;;5.84;61.97;100507.25;5539933;32;34306;-86
2022/03/04 09:37:27;;;;;;;;;;;;;;;5.56;62.32;100508.28;5540262;32;35346;-86
2022/03/04 09:40:32;;;;;;;;;;;;;;;5.74;61.79;100511.44;5540080;32;34369;-86
2022/03/04 09:43:35;;;;;;;;;;;;;;;6.02;59.60;100506.97;5544777;32;34977;-86
2022/03/04 09:46:40;;;;;;;;;;;;;;;5.91;59.97;100512.09;5544961;32;34777;-85
2022/03/04 09:49:43;;;;;;;;;;;;;;;5.61;62.85;100506.19;5545467;32;34860;-85
2022/03/04 09:52:46;;;;;;;;;;;;;;;5.94;61.28;100506.59;5544852;32;34838;-85
2022/03/04 09:55:49;;;;;;;;;;;;;;;5.67;61.62;100513.66;5544668;32;34558;-85
2022/03/04 09:58:51;;;;;;;;;;;;;;;5.49;61.53;100507.84;5545423;32;34577;-86
2022/03/04 10:02:01;;;;;;;;;;;;;;;5.41;63.47;100516.22;5562955;32;34717;-85
2022/03/04 10:05:05;;;;;;;;;;;;;;;5.41;61.17;100515.41;5552409;32;34693;-86
2022/03/04 10:08:17;;;;;;;;;;;;;;;4.88;62.76;100513.59;5551180;32;35549;-86
2022/03/04 10:11:26;;;;;;;;;;;;;;;5.21;64.57;100509.72;5554498;32;35163;-86
2022/03/04 10:14:29;;;;;;;;;;;;;;;5.47;61.62;100514.97;5564860;32;34698;-85
2022/03/04 10:17:37;;;;;;;;;;;;;;;5.41;61.88;100516.22;5544830;32;34875;-85
2022/03/04 10:20:42;;;;;;;;;;;;;;;5.48;61.53;100511.41;5542140;32;34210;-85
2022/03/04 10:23:45;;;;;;;;;;;;;;;5.18;62.50;100514.31;5547497;32;35234;-86
2022/03/04 10:27:04;;;;;;;;;;;;;;;5.26;61.70;100514.66;5541300;32;34728;-86
2022/03/04 10:30:10;;;;;;;;;;;;;;;5.24;62.35;100514.72;5545790;32;34222;-86
2022/03/04 10:33:22;;;;;;;;;;;;;;;5.36;61.15;100507.84;5539542;32;34822;-86
2022/03/04 10:36:25;;;;;;;;;;;;;;;5.60;60.66;100514.16;5537587;32;35620;-87
2022/03/04 10:39:28;;;;;;;;;;;;;;;5.94;61.46;100506.59;5541233;32;35219;-87
2022/03/04 10:42:41;;;;;;;;;;;;;;;6.03;59.34;100500.72;5540800;32;35573;-87
2022/03/04 10:45:58;;;;;;;;;;;;;;;6.18;59.27;100497.03;5536840;32;34820;-86
2022/03/04 10:49:02;;;;;;;;;;;;;;;6.48;58.55;100495.81;5540272;32;34711;-87
2022/03/04 10:52:07;;;;;;;;;;;;;;;7.02;59.00;100496.34;5537978;32;35010;-86
2022/03/04 10:55:11;;;;;;;;;;;;;;;7.18;53.69;100496.03;5538710;32;35295;-87
2022/03/04 10:58:22;;;;;;;;;;;;;;;6.93;55.49;100497.84;5535289;32;34168;-87
2022/03/04 11:01:28;;;;;;;;;;;;;;;6.38;57.18;100500.03;5535209;32;34149;-87
2022/03/04 11:04:31;;;;;;;;;;;;;;;6.55;55.42;100496.22;5535367;32;35802;-87
2022/03/04 11:07:35;;;;;;;;;;;;;;;6.92;55.51;100496.16;5535846;32;34494;-86
2022/03/04 11:10:38;;;;;;;;;;;;;;;6.68;55.41;100493.56;5533509;32;34177;-86
2022/03/04 11:13:41;;;;;;;;;;;;;;;6.00;57.84;100490.47;5533354;32;35263;-86
2022/03/04 11:16:44;;;;;;;;;;;;;;;6.49;57.42;100494.84;5535021;32;34472;-87
2022/03/04 11:19:57;;;;;;;;;;;;;;;6.50;56.32;100493.09;5535976;32;34765;-86
2022/03/04 11:23:00;;;;;;;;;;;;;;;5.98;56.79;100495.78;5537099;32;34746;-86
2022/03/04 11:26:07;;;;;;;;;;;;;;;5.76;60.03;100501.69;5538997;32;35409;-86
2022/03/04 11:29:30;;;;;;;;;;;;;;;5.39;60.59;100493.69;5551602;32;34412;-86
2022/03/04 11:32:36;;;;;;;;;;;;;;;4.91;65.23;100497.66;5557142;32;35022;-87
2022/03/04 11:35:42;;;;;;;;;;;;;;;4.91;66.65;100502.88;5558389;32;34349;-87
2022/03/04 11:38:49;;;;;;;;;;;;;;;5.04;66.69;100494.22;5560194;32;34973;-87
2022/03/04 11:41:53;;;;;;;;;;;;;;;5.02;66.44;100498.72;5548156;32;34938;-86
2022/03/04 11:44:57;;;;;;;;;;;;;;;4.87;67.58;100506.66;5537935;32;34592;-86
2022/03/04 11:48:02;;;;;;;;;;;;;;;5.14;67.34;100503.16;5541857;32;35208;-86
2022/03/04 11:51:13;;;;;;;;;;;;;;;4.81;69.25;100507.06;5560878;32;34835;-86
2022/03/04 11:54:23;;;;;;;;;;;;;;;4.69;69.31;100499.97;5559145;32;35112;-86
2022/03/04 11:57:27;;;;;;;;;;;;;;;4.87;68.27;100500.56;5559488;32;35330;-86
2022/03/04 12:00:36;;;;;;;;;;;;;;;4.99;65.96;100504.19;5557533;32;35362;-87
2022/03/04 12:04:00;;;;;;;;;;;;;;;5.08;65.42;100500.97;5557492;32;34370;-86
2022/03/04 12:07:06;;;;;;;;;;;;;;;5.19;64.69;100506.34;5559336;32;33354;-87
2022/03/04 12:10:10;;;;;;;;;;;;;;;5.63;64.27;100503.47;5539610;32;34830;-87
2022/03/04 12:13:12;;;;;;;;;;;;;;;5.51;63.25;100503.34;5540304;32;34803;-89
2022/03/04 12:16:21;;;;;;;;;;;;;;;5.51;63.75;100508.59;5536560;32;33496;-86
2022/03/04 12:19:34;;;;;;;;;;;;;;;5.38;65.05;100510.34;5536790;32;34832;-86
2022/03/04 12:22:44;;;;;;;;;;;;;;;5.21;67.05;100509.72;5536636;32;34572;-86
2022/03/04 12:25:54;;;;;;;;;;;;;;;5.08;66.14;100504.41;5537558;32;34801;-86
2022/03/04 12:29:02;;;;;;;;;;;;;;;5.16;66.82;100511.78;5535613;32;34614;-86
2022/03/04 12:32:07;;;;;;;;;;;;;;;4.87;67.86;100511.91;5536771;32;34587;-86
2022/03/04 12:35:14;;;;;;;;;;;;;;;5.30;67.46;100508.22;5545165;32;34728;-86
2022/03/04 12:38:17;;;;;;;;;;;;;;;5.46;65.67;100502.81;5556679;32;34270;-87
2022/03/04 12:41:21;;;;;;;;;;;;;;;5.46;65.63;100518.53;5560208;32;34906;-86
2022/03/04 12:44:27;;;;;;;;;;;;;;;5.76;63.36;100503.44;5556147;32;34740;-86
2022/03/04 12:47:36;;;;;;;;;;;;;;;5.93;61.78;100504.91;5551764;32;34591;-86
2022/03/04 12:50:38;;;;;;;;;;;;;;;5.86;62.26;100504.50;5555541;32;34515;-86
2022/03/04 12:53:41;;;;;;;;;;;;;;;5.86;63.31;100494.00;5557023;32;34437;-87
2022/03/04 12:56:57;;;;;;;;;;;;;;;6.26;60.30;100495.66;5555085;32;34891;-87
2022/03/04 13:00:00;;;;;;;;;;;;;;;5.97;60.40;100495.88;5554310;32;34561;-87
2022/03/04 13:03:19;;;;;;;;;;;;;;;6.18;61.21;100498.84;5555778;32;34982;-87
2022/03/04 13:06:26;;;;;;;;;;;;;;;6.22;59.54;100489.78;5554937;32;34607;-86
2022/03/04 13:09:29;;;;;;;;;;;;;;;6.05;60.39;100488.34;5555974;32;34829;-88
2022/03/04 13:12:32;;;;;;;;;;;;;;;5.73;61.40;100488.75;5555209;32;34525;-88
2022/03/04 13:15:44;;;;;;;;;;;;;;;5.92;61.27;100483.09;5554149;32;35049;-88
2022/03/04 13:18:47;;;;;;;;;;;;;;;5.93;62.05;100483.91;5554842;32;35502;-88
2022/03/04 13:21:59;;;;;;;;;;;;;;;5.82;61.50;100482.88;5543905;32;34672;-88
2022/03/04 13:25:02;;;;;;;;;;;;;;;5.54;61.99;100478.66;5537243;32;34252;-88
2022/03/04 13:28:05;;;;;;;;;;;;;;;5.38;62.18;100477.09;5542974;32;34684;-85
2022/03/04 13:31:19;;;;;;;;;;;;;;;4.94;64.16;100489.59;5555660;32;34560;-85
2022/03/04 13:34:29;;;;;;;;;;;;;;;4.95;64.22;100485.19;5556126;32;35404;-85
2022/03/04 13:37:40;;;;;;;;;;;;;;;4.61;65.19;100485.59;5560442;32;34744;-85
2022/03/04 13:40:44;;;;;;;;;;;;;;;4.71;64.96;100488.47;5556403;32;34467;-85
2022/03/04 13:44:04;;;;;;;;;;;;;;;4.67;65.48;100489.59;5555971;32;34835;-85
2022/03/04 13:47:07;;;;;;;;;;;;;;;4.58;64.36;100492.81;5556305;32;34868;-89
2022/03/04 13:50:32;;;;;;;;;;;;;;;4.79;64.49;100487.94;5555283;32;35140;-88
2022/03/04 13:53:54;;;;;;;;;;;;;;;4.67;65.03;100480.91;5519688;32;35321;-88
2022/03/04 13:57:05;;;;;;;;;;;;;;;4.64;65.24;100480.16;5535079;32;34255;-88
2022/03/04 14:00:17;;;;;;;;;;;;;;;4.88;65.27;100478.66;5536265;32;34890;-88
2022/03/04 14:03:26;;;;;;;;;;;;;;;5.22;63.31;100479.91;5537006;32;34720;-87
2022/03/04 14:06:29;;;;;;;;;;;;;;;5.07;63.41;100478.31;5536865;32;34641;-88
2022/03/04 14:09:44;;;;;;;;;;;;;;;5.53;62.58;100488.34;5536870;32;34775;-88
2022/03/04 14:12:46;;;;;;;;;;;;;;;4.73;69.52;100488.37;5537031;32;35020;-88
2022/03/04 14:15:51;;;;;;;;;;;;;;;4.73;71.30;100488.37;5538175;32;35668;-87
2022/03/04 14:18:55;;;;;;;;;;;;;;;4.55;71.92;100486.00;5538572;32;34712;-87
2022/03/04 14:21:57;;;;;;;;;;;;;;;4.55;71.71;100486.00;5537665;32;34623;-88
2022/03/04 14:25:00;;;;;;;;;;;;;;;4.28;73.34;100488.56;5538750;32;34715;-88
2022/03/04 14:28:04;;;;;;;;;;;;;;;4.04;75.48;100481.31;5537759;32;34684;-88
2022/03/04 14:31:09;;;;;;;;;;;;;;;3.94;74.49;100488.88;5537083;32;35490;-88
2022/03/04 14:34:17;;;;;;;;;;;;;;;3.78;75.53;100482.88;5538078;32;34557;-87
2022/03/04 14:37:20;;;;;;;;;;;;;;;4.16;73.54;100487.56;5539141;32;35008;-87
2022/03/04 14:40:23;;;;;;;;;;;;;;;4.37;68.11;100487.16;5538675;32;34776;-88
2022/03/04 14:43:26;;;;;;;;;;;;;;;4.12;69.08;100483.44;5540095;32;34823;-87
2022/03/04 14:46:29;;;;;;;;;;;;;;;3.92;69.38;100488.13;5539917;32;34719;-87
2022/03/04 14:49:31;;;;;;;;;;;;;;;4.00;70.11;100480.63;5541991;32;36104;-88
2022/03/04 14:52:39;;;;;;;;;;;;;;;3.90;69.95;100487.38;5536977;32;34782;-88
2022/03/04 14:55:41;;;;;;;;;;;;;;;3.88;70.52;100491.88;5538592;32;34840;-87
2022/03/04 14:58:44;;;;;;;;;;;;;;;3.95;69.43;100498.41;5539347;32;35614;-87
2022/03/04 15:01:47;;;;;;;;;;;;;;;3.89;68.54;100483.06;5537999;32;34810;-87
2022/03/04 15:04:50;;;;;;;;;;;;;;;3.77;68.68;100483.84;5537214;32;35009;-87
2022/03/04 15:07:53;;;;;;;;;;;;;;;3.79;69.14;100487.19;5537528;32;35844;-88
2022/03/04 15:10:56;;;;;;;;;;;;;;;3.74;68.63;100484.84;5538658;32;34614;-87
2022/03/04 15:13:58;;;;;;;;;;;;;;;3.69;68.95;100484.31;5538097;32;34231;-87
2022/03/04 15:17:07;;;;;;;;;;;;;;;4.02;67.61;100483.19;5526399;32;34789;-88
2022/03/04 15:20:13;;;;;;;;;;;;;;;3.83;68.33;100488.69;5540849;32;35097;-88
2022/03/04 15:23:18;;;;;;;;;;;;;;;4.02;68.80;100484.00;5537819;32;34395;-87
2022/03/04 15:26:32;;;;;;;;;;;;;;;4.18;68.26;100488.31;5539712;32;35590;-86
2022/03/04 15:29:39;;;;;;;;;;;;;;;4.41;67.69;100483.41;5537431;32;35662;-87
2022/03/04 15:32:56;;;;;;;;;;;;;;;4.45;68.26;100490.09;5540215;32;35335;-87
2022/03/04 15:35:59;;;;;;;;;;;;;;;4.60;68.19;100494.37;5559795;32;34770;-87
2022/03/04 15:39:02;;;;;;;;;;;;;;;4.68;68.30;100500.91;5545757;32;34592;-87
2022/03/04 15:42:09;;;;;;;;;;;;;;;4.75;67.93;100496.97;5548617;32;34815;-87
2022/03/04 15:45:12;;;;;;;;;;;;;;;4.93;68.58;100494.94;5536410;32;35456;-86
2022/03/04 15:48:17;;;;;;;;;;;;;;;4.82;68.14;100498.25;5523510;32;34814;-86
2022/03/04 15:51:20;;;;;;;;;;;;;;;4.77;67.08;100505.59;5536023;32;34917;-85
2022/03/04 15:54:25;;;;;;;;;;;;;;;4.49;68.22;100494.22;5536395;32;35144;-88
2022/03/04 15:57:28;;;;;;;;;;;;;;;4.30;62.17;100505.88;5536292;32;34826;-86
2022/03/04 16:00:32;;;;;;;;;;;;;;;4.14;64.57;100505.13;5539160;32;34678;-86
2022/03/04 16:03:37;;;;;;;;;;;;;;;4.10;67.10;100501.03;5537300;32;34302;-85